Kaltag, AK

2:55 PM AKDT on August 28, 2016 (GMT -0800)
Kaltag | | Change Station

Elev 200 ft 64.32 °N, 158.74 °W | Updated 2 minutes ago

Overcast
Overcast
61 °F
Feels Like 61 °F
N
6
Wind Variable Wind from ENE

Today
High -- | Low -- °F
--% Chance of Precip.
Yesterday
High -- | Low -- °F
Precip. -- in
Pressure 30.34 in
Visibility 10.0 miles
Clouds Overcast 2600 ft
Dew Point 53 °F
Humidity 75%
Rainfall 0.00 in
Snow Depth Not available.
7:07 AM 10:02 PM
Waning Crescent, 13% visible
METAR PAKV 282253Z AUTO 07005KT 10SM OVC026 16/12 A3033 RMK AO2 SLP274 T01610117 TSNO
Pressure 30.34 in
Visibility 10.0 miles
Clouds Overcast 2600 ft
Dew Point 53 °F
Humidity 75%
Rainfall 0.00 in
Snow Depth Not available.
7:07 AM 10:02 PM
Waning Crescent, 13% visible
METAR PAKV 282253Z AUTO 07005KT 10SM OVC026 16/12 A3033 RMK AO2 SLP274 T01610117 TSNO

10-Day Weather Forecast

Almanac

Astronomy

Aug. 28, 2016 Rise Set
Actual Time
Civil Twilight
Nautical Twilight
Astronomical Twilight
Moon
Length of Visible Light
Length of Day
Tomorrow will be .
, % of the Moon is Illuminated

Today's Extremes

State Highs State Lows

Community

WunderPhotos

Upload Photos

1,935,705 photos uploaded!

WunderBlog® & News

Nearby

Air Quality

  Air Quality AQ Index Pollutant
Not available.

Snow Depth

Station Depth Elevation

Earthquake Activity

City Distance Mag. Time & Date
Minimum magnitude displayed is 2.5.

Coastal Water Temperatures

Place Temperature

Stations

Nearby Weather Stations

Station Location Temp. Windchill Dew Point Humidity Wind Precip. Elev Updated Type
                   

Watches & Warnings

There are currently no watches in effect.